LLM145 USTR-USMU
Flight info
| Callsign | LLM145 |
|---|---|
| Flight time | N/A |
| Altitude | 35000 |
| Route | K0826F350 LAKED L165 LUGIK A925 HMN R124 LARTU W77 REMKI |
| Aircraft | A320/M-SDE3FGHIRWY/LB1 |
Departure
| Time | N/A |
|---|---|
| Airport | Roshchino International Airport (USTR) |
Arrival
| Time | 2026-04-27 22:16 |
|---|---|
| Airport | Novy Urengoy Airport (USMU) |
| Time | Latitude | Longitude | Altitude | Speed | Heading |
|---|---|---|---|---|---|
| 2026-04-27 21:07 | 61.75680 | 70.49963 | 35197 ft | 456 kts | 36° |
| 2026-04-27 21:07 | 61.80333 | 70.59046 | 35188 ft | 455 kts | 36° |
| 2026-04-27 21:08 | 61.84978 | 70.68147 | 35179 ft | 454 kts | 36° |
| 2026-04-27 21:08 | 61.89608 | 70.77277 | 35183 ft | 455 kts | 36° |
| 2026-04-27 21:09 | 61.94234 | 70.86425 | 35179 ft | 454 kts | 36° |
| 2026-04-27 21:09 | 61.98947 | 70.95332 | 35175 ft | 448 kts | 29° |
| 2026-04-27 21:10 | 62.04305 | 71.01663 | 35204 ft | 436 kts | 18° |
| 2026-04-27 21:10 | 62.09795 | 71.07010 | 35198 ft | 436 kts | 18° |
| 2026-04-27 21:11 | 62.15306 | 71.12411 | 35212 ft | 436 kts | 18° |
| 2026-04-27 21:11 | 62.20811 | 71.17859 | 35198 ft | 436 kts | 18° |
| 2026-04-27 21:12 | 62.26327 | 71.23340 | 35184 ft | 436 kts | 19° |
| 2026-04-27 21:12 | 62.31826 | 71.28829 | 35176 ft | 436 kts | 19° |
| 2026-04-27 21:13 | 62.37324 | 71.34330 | 35166 ft | 436 kts | 18° |
| 2026-04-27 21:13 | 62.42796 | 71.39796 | 35202 ft | 436 kts | 19° |
| 2026-04-27 21:14 | 62.48300 | 71.45327 | 35194 ft | 436 kts | 19° |
| 2026-04-27 21:14 | 62.53797 | 71.50892 | 35178 ft | 436 kts | 19° |
| 2026-04-27 21:15 | 62.59288 | 71.56466 | 35160 ft | 436 kts | 19° |
| 2026-04-27 21:15 | 62.64786 | 71.62073 | 35165 ft | 436 kts | 19° |
| 2026-04-27 21:16 | 62.70288 | 71.67712 | 35156 ft | 437 kts | 20° |
| 2026-04-27 21:16 | 62.75793 | 71.73381 | 35158 ft | 437 kts | 20° |
| 2026-04-27 21:17 | 62.81280 | 71.79042 | 35149 ft | 436 kts | 20° |
| 2026-04-27 21:17 | 62.86770 | 71.84733 | 35180 ft | 437 kts | 20° |
| 2026-04-27 21:18 | 62.92223 | 71.90432 | 35175 ft | 437 kts | 20° |
| 2026-04-27 21:18 | 62.97721 | 71.96188 | 35153 ft | 438 kts | 20° |
| 2026-04-27 21:19 | 63.03220 | 72.01959 | 35146 ft | 438 kts | 20° |
| 2026-04-27 21:19 | 63.08724 | 72.07749 | 35143 ft | 438 kts | 20° |
| 2026-04-27 21:20 | 63.16973 | 72.16494 | 35138 ft | 438 kts | 20° |
| 2026-04-27 21:20 | 63.22472 | 72.22341 | 35135 ft | 438 kts | 20° |
| 2026-04-27 21:21 | 63.27982 | 72.28241 | 35164 ft | 439 kts | 21° |
| 2026-04-27 21:21 | 63.33490 | 72.34160 | 35148 ft | 439 kts | 21° |
| 2026-04-27 21:22 | 63.39005 | 72.40114 | 35145 ft | 440 kts | 21° |
| 2026-04-27 21:22 | 63.44515 | 72.46097 | 35134 ft | 440 kts | 21° |
| 2026-04-27 21:23 | 63.50033 | 72.52097 | 35136 ft | 441 kts | 21° |
| 2026-04-27 21:23 | 63.55540 | 72.58125 | 35126 ft | 441 kts | 21° |
| 2026-04-27 21:24 | 63.61050 | 72.64197 | 35129 ft | 441 kts | 21° |
| 2026-04-27 21:24 | 63.66565 | 72.70288 | 35134 ft | 442 kts | 21° |
| 2026-04-27 21:25 | 63.72076 | 72.76389 | 35140 ft | 442 kts | 22° |
| 2026-04-27 21:25 | 63.77569 | 72.82504 | 35125 ft | 443 kts | 22° |
| 2026-04-27 21:26 | 63.83097 | 72.88682 | 35120 ft | 443 kts | 22° |
| 2026-04-27 21:26 | 63.88621 | 72.94881 | 35111 ft | 443 kts | 22° |
| 2026-04-27 21:27 | 63.94067 | 73.01507 | 35106 ft | 447 kts | 29° |
| 2026-04-27 21:27 | 63.99266 | 73.09312 | 35107 ft | 448 kts | 29° |
| 2026-04-27 21:28 | 64.04446 | 73.17086 | 35113 ft | 448 kts | 29° |
| 2026-04-27 21:28 | 64.09654 | 73.24946 | 35108 ft | 449 kts | 29° |
| 2026-04-27 21:29 | 64.14863 | 73.32830 | 35108 ft | 449 kts | 29° |
| 2026-04-27 21:29 | 64.20065 | 73.40742 | 35107 ft | 449 kts | 29° |
| 2026-04-27 21:30 | 64.25260 | 73.48721 | 35109 ft | 450 kts | 29° |
| 2026-04-27 21:30 | 64.30458 | 73.56739 | 35116 ft | 450 kts | 30° |
| 2026-04-27 21:31 | 64.35659 | 73.64781 | 35106 ft | 450 kts | 29° |
| 2026-04-27 21:31 | 64.40855 | 73.72818 | 35110 ft | 449 kts | 29° |
| 2026-04-27 21:32 | 64.46005 | 73.80853 | 35128 ft | 449 kts | 30° |
| 2026-04-27 21:32 | 64.51196 | 73.89011 | 35105 ft | 450 kts | 30° |
| 2026-04-27 21:33 | 64.56382 | 73.97190 | 35095 ft | 450 kts | 30° |
| 2026-04-27 21:33 | 64.61571 | 74.05381 | 35091 ft | 451 kts | 30° |
| 2026-04-27 21:34 | 64.66737 | 74.13578 | 35089 ft | 451 kts | 30° |
| 2026-04-27 21:34 | 64.71916 | 74.21852 | 35089 ft | 451 kts | 30° |
| 2026-04-27 21:35 | 64.77105 | 74.30167 | 35088 ft | 451 kts | 30° |
| 2026-04-27 21:35 | 64.79693 | 74.34330 | 34928 ft | 452 kts | 30° |
| 2026-04-27 21:35 | 64.82283 | 74.38510 | 34725 ft | 452 kts | 30° |
| 2026-04-27 21:36 | 64.84876 | 74.42703 | 34491 ft | 452 kts | 30° |
| 2026-04-27 21:36 | 64.87466 | 74.46899 | 34263 ft | 452 kts | 30° |
| 2026-04-27 21:36 | 64.90056 | 74.51111 | 34026 ft | 452 kts | 30° |
| 2026-04-27 21:36 | 64.92634 | 74.55317 | 33751 ft | 451 kts | 30° |
| 2026-04-27 21:37 | 64.95206 | 74.59522 | 33265 ft | 450 kts | 30° |
| 2026-04-27 21:37 | 64.97796 | 74.63763 | 32242 ft | 453 kts | 28° |
| 2026-04-27 21:37 | 65.00389 | 74.68018 | 31336 ft | 452 kts | 28° |
| 2026-04-27 21:37 | 65.02956 | 74.72244 | 30489 ft | 449 kts | 27° |
| 2026-04-27 21:38 | 65.05502 | 74.76456 | 29384 ft | 439 kts | 27° |
| 2026-04-27 21:38 | 65.07950 | 74.80536 | 28779 ft | 418 kts | 27° |
| 2026-04-27 21:38 | 65.10271 | 74.84428 | 28270 ft | 403 kts | 26° |
| 2026-04-27 21:38 | 65.12555 | 74.88227 | 27687 ft | 398 kts | 26° |
| 2026-04-27 21:39 | 65.14817 | 74.91965 | 27114 ft | 394 kts | 26° |
| 2026-04-27 21:39 | 65.17060 | 74.95671 | 26547 ft | 390 kts | 26° |
| 2026-04-27 21:39 | 65.19276 | 74.99347 | 25998 ft | 388 kts | 26° |
| 2026-04-27 21:39 | 65.21487 | 75.03036 | 25418 ft | 385 kts | 27° |
| 2026-04-27 21:40 | 65.23668 | 75.06696 | 24872 ft | 383 kts | 27° |
| 2026-04-27 21:40 | 65.25840 | 75.10348 | 24322 ft | 380 kts | 27° |
| 2026-04-27 21:40 | 65.27995 | 75.13974 | 23772 ft | 378 kts | 27° |
| 2026-04-27 21:40 | 65.30138 | 75.17594 | 23172 ft | 376 kts | 27° |
| 2026-04-27 21:41 | 65.32266 | 75.21200 | 22638 ft | 373 kts | 27° |
| 2026-04-27 21:41 | 65.34373 | 75.24776 | 22117 ft | 371 kts | 27° |
| 2026-04-27 21:41 | 65.36476 | 75.28345 | 21616 ft | 369 kts | 27° |
| 2026-04-27 21:41 | 65.38560 | 75.31888 | 21136 ft | 366 kts | 27° |
| 2026-04-27 21:42 | 65.39928 | 75.34215 | 20814 ft | 364 kts | 27° |
| 2026-04-27 21:42 | 65.41990 | 75.37733 | 20351 ft | 361 kts | 27° |
| 2026-04-27 21:42 | 65.44026 | 75.41212 | 19888 ft | 358 kts | 27° |
| 2026-04-27 21:42 | 65.46050 | 75.44677 | 19429 ft | 356 kts | 27° |
| 2026-04-27 21:43 | 65.48057 | 75.48128 | 18963 ft | 353 kts | 28° |
| 2026-04-27 21:43 | 65.50055 | 75.51571 | 18496 ft | 352 kts | 28° |
| 2026-04-27 21:43 | 65.52042 | 75.54990 | 17989 ft | 351 kts | 28° |
| 2026-04-27 21:43 | 65.54018 | 75.58401 | 17534 ft | 349 kts | 27° |
| 2026-04-27 21:44 | 65.55984 | 75.61806 | 16993 ft | 346 kts | 28° |
| 2026-04-27 21:44 | 65.57931 | 75.65182 | 16526 ft | 343 kts | 27° |
| 2026-04-27 21:44 | 65.59866 | 75.68540 | 16003 ft | 342 kts | 28° |
| 2026-04-27 21:44 | 65.61798 | 75.71894 | 15490 ft | 340 kts | 28° |
| 2026-04-27 21:45 | 65.63717 | 75.75238 | 14984 ft | 340 kts | 28° |
| 2026-04-27 21:45 | 65.66251 | 75.79671 | 14293 ft | 339 kts | 28° |
| 2026-04-27 21:45 | 65.67543 | 75.81932 | 13945 ft | 338 kts | 28° |
| 2026-04-27 21:45 | 65.69407 | 75.85432 | 13385 ft | 343 kts | 36° |
| 2026-04-27 21:46 | 65.71020 | 75.89751 | 12848 ft | 348 kts | 47° |
| 2026-04-27 21:46 | 65.72289 | 75.94810 | 12292 ft | 353 kts | 57° |
| 2026-04-27 21:46 | 65.73409 | 76.00111 | 11740 ft | 351 kts | 57° |
| 2026-04-27 21:46 | 65.74522 | 76.05380 | 11188 ft | 350 kts | 57° |
| 2026-04-27 21:47 | 65.75629 | 76.10631 | 10678 ft | 347 kts | 57° |
| 2026-04-27 21:47 | 65.76709 | 76.15759 | 10534 ft | 334 kts | 57° |
| 2026-04-27 21:47 | 65.77741 | 76.20691 | 10404 ft | 321 kts | 56° |
| 2026-04-27 21:47 | 65.78737 | 76.25448 | 10278 ft | 310 kts | 56° |
| 2026-04-27 21:48 | 65.79701 | 76.30055 | 10136 ft | 300 kts | 56° |
| 2026-04-27 21:48 | 65.80643 | 76.34562 | 9919 ft | 294 kts | 55° |
| 2026-04-27 21:48 | 65.81565 | 76.38976 | 9749 ft | 293 kts | 55° |
| 2026-04-27 21:48 | 65.82505 | 76.43450 | 9246 ft | 297 kts | 55° |
| 2026-04-27 21:49 | 65.83429 | 76.47868 | 8809 ft | 298 kts | 56° |
| 2026-04-27 21:49 | 65.84372 | 76.52380 | 8473 ft | 295 kts | 56° |
| 2026-04-27 21:49 | 65.85295 | 76.56838 | 8121 ft | 294 kts | 56° |
| 2026-04-27 21:49 | 65.86213 | 76.61282 | 7636 ft | 291 kts | 56° |
| 2026-04-27 21:50 | 65.87126 | 76.65724 | 6969 ft | 291 kts | 56° |
| 2026-04-27 21:50 | 65.88030 | 76.70128 | 6357 ft | 289 kts | 56° |
| 2026-04-27 21:50 | 65.88895 | 76.74312 | 5878 ft | 282 kts | 56° |
| 2026-04-27 21:50 | 65.89802 | 76.78717 | 5979 ft | 283 kts | 56° |
| 2026-04-27 21:51 | 65.90697 | 76.83036 | 6001 ft | 285 kts | 56° |
| 2026-04-27 21:51 | 65.91314 | 76.87403 | 5998 ft | 278 kts | 78° |
| 2026-04-27 21:51 | 65.91101 | 76.92162 | 5989 ft | 270 kts | 103° |
| 2026-04-27 21:51 | 65.90526 | 76.96448 | 5992 ft | 262 kts | 107° |
| 2026-04-27 21:52 | 65.89915 | 77.00629 | 5991 ft | 261 kts | 107° |
| 2026-04-27 21:52 | 65.89297 | 77.04809 | 5991 ft | 261 kts | 107° |
| 2026-04-27 21:52 | 65.88678 | 77.08979 | 5995 ft | 261 kts | 107° |
| 2026-04-27 21:52 | 65.88055 | 77.13163 | 5999 ft | 263 kts | 107° |
| 2026-04-27 21:53 | 65.87427 | 77.17346 | 5843 ft | 262 kts | 107° |
| 2026-04-27 21:53 | 65.86800 | 77.21510 | 5536 ft | 260 kts | 107° |
| 2026-04-27 21:53 | 65.86176 | 77.25652 | 5243 ft | 258 kts | 107° |
| 2026-04-27 21:53 | 65.85565 | 77.29717 | 4937 ft | 257 kts | 107° |
| 2026-04-27 21:54 | 65.84952 | 77.33807 | 4630 ft | 255 kts | 107° |
| 2026-04-27 21:54 | 65.84337 | 77.37918 | 4337 ft | 253 kts | 107° |
| 2026-04-27 21:54 | 65.83740 | 77.41887 | 4083 ft | 250 kts | 107° |
| 2026-04-27 21:54 | 65.83209 | 77.45910 | 4008 ft | 247 kts | 92° |
| 2026-04-27 21:55 | 65.83374 | 77.49907 | 3893 ft | 230 kts | 57° |
| 2026-04-27 21:55 | 65.84281 | 77.52812 | 3577 ft | 206 kts | 25° |
| 2026-04-27 21:55 | 65.85479 | 77.54638 | 3259 ft | 202 kts | 18° |
| 2026-04-27 21:55 | 65.86721 | 77.56141 | 2964 ft | 193 kts | 7° |
| 2026-04-27 21:56 | 65.88003 | 77.56371 | 2639 ft | 181 kts | 342° |
| 2026-04-27 21:56 | 65.89835 | 77.52875 | 2028 ft | 168 kts | 296° |
| 2026-04-27 21:56 | 65.90354 | 77.50240 | 2022 ft | 175 kts | 297° |
| 2026-04-27 21:57 | 65.90898 | 77.47569 | 2016 ft | 177 kts | 297° |
| 2026-04-27 21:57 | 65.91446 | 77.44876 | 2015 ft | 176 kts | 297° |
| 2026-04-27 21:57 | 65.91988 | 77.42181 | 2019 ft | 176 kts | 297° |
| 2026-04-27 21:57 | 65.92528 | 77.39515 | 2016 ft | 176 kts | 297° |
| 2026-04-27 21:58 | 65.93067 | 77.36819 | 2022 ft | 176 kts | 297° |
| 2026-04-27 21:58 | 65.93604 | 77.34166 | 2022 ft | 176 kts | 297° |
| 2026-04-27 21:58 | 65.94143 | 77.31482 | 2026 ft | 176 kts | 297° |
| 2026-04-27 21:58 | 65.94684 | 77.28800 | 2025 ft | 176 kts | 297° |
| 2026-04-27 21:59 | 65.95223 | 77.26108 | 2016 ft | 174 kts | 297° |
| 2026-04-27 21:59 | 65.95758 | 77.23427 | 2017 ft | 174 kts | 297° |
| 2026-04-27 21:59 | 65.96288 | 77.20774 | 2028 ft | 174 kts | 297° |
| 2026-04-27 21:59 | 65.96822 | 77.18097 | 2026 ft | 176 kts | 297° |
| 2026-04-27 22:00 | 65.97356 | 77.15395 | 2025 ft | 175 kts | 297° |
| 2026-04-27 22:00 | 65.97885 | 77.12719 | 2025 ft | 175 kts | 297° |
| 2026-04-27 22:00 | 65.98412 | 77.10042 | 2027 ft | 175 kts | 297° |
| 2026-04-27 22:00 | 65.98939 | 77.07379 | 2026 ft | 168 kts | 297° |
| 2026-04-27 22:01 | 65.99440 | 77.04852 | 2026 ft | 162 kts | 297° |
| 2026-04-27 22:01 | 65.99930 | 77.02376 | 2018 ft | 160 kts | 297° |
| 2026-04-27 22:01 | 66.00422 | 76.99918 | 2014 ft | 162 kts | 298° |
| 2026-04-27 22:01 | 66.00907 | 76.97424 | 2015 ft | 161 kts | 294° |
| 2026-04-27 22:02 | 66.01309 | 76.94872 | 2027 ft | 157 kts | 292° |
| 2026-04-27 22:02 | 66.01651 | 76.92481 | 2044 ft | 140 kts | 291° |
| 2026-04-27 22:02 | 66.01947 | 76.90323 | 2025 ft | 129 kts | 291° |
| 2026-04-27 22:02 | 66.02227 | 76.88260 | 2022 ft | 126 kts | 291° |
| 2026-04-27 22:03 | 66.02499 | 76.86233 | 2017 ft | 124 kts | 290° |
| 2026-04-27 22:03 | 66.02765 | 76.84230 | 2018 ft | 124 kts | 291° |
| 2026-04-27 22:03 | 66.03032 | 76.82213 | 2040 ft | 122 kts | 291° |
| 2026-04-27 22:03 | 66.03296 | 76.80225 | 2049 ft | 123 kts | 291° |
| 2026-04-27 22:04 | 66.03562 | 76.78217 | 2042 ft | 123 kts | 291° |
| 2026-04-27 22:04 | 66.03826 | 76.76214 | 2025 ft | 123 kts | 290° |
| 2026-04-27 22:04 | 66.04089 | 76.74210 | 1928 ft | 123 kts | 290° |
| 2026-04-27 22:04 | 66.04353 | 76.72208 | 1790 ft | 123 kts | 291° |
| 2026-04-27 22:05 | 66.04615 | 76.70219 | 1633 ft | 122 kts | 291° |
| 2026-04-27 22:05 | 66.04876 | 76.68228 | 1460 ft | 122 kts | 290° |
| 2026-04-27 22:05 | 66.05135 | 76.66244 | 1288 ft | 122 kts | 290° |
| 2026-04-27 22:05 | 66.05396 | 76.64252 | 1102 ft | 122 kts | 289° |
| 2026-04-27 22:06 | 66.05658 | 76.62251 | 919 ft | 123 kts | 289° |
| 2026-04-27 22:06 | 66.05920 | 76.60253 | 738 ft | 122 kts | 289° |
| 2026-04-27 22:06 | 66.06180 | 76.58266 | 573 ft | 122 kts | 289° |
| 2026-04-27 22:06 | 66.06436 | 76.56279 | 383 ft | 121 kts | 289° |
| 2026-04-27 22:07 | 66.06688 | 76.54315 | 239 ft | 120 kts | 288° |
| 2026-04-27 22:07 | 66.06930 | 76.52467 | 295 ft | 112 kts | 290° |
| 2026-04-27 22:07 | 66.07216 | 76.50547 | 905 ft | 128 kts | 291° |
| 2026-04-27 22:07 | 66.07509 | 76.48450 | 1750 ft | 131 kts | 290° |
| 2026-04-27 22:08 | 66.07798 | 76.46115 | 1995 ft | 158 kts | 289° |
| 2026-04-27 22:08 | 66.08022 | 76.43298 | 2017 ft | 177 kts | 271° |
| 2026-04-27 22:08 | 66.07522 | 76.40444 | 2029 ft | 195 kts | 231° |
| 2026-04-27 22:08 | 66.06227 | 76.39108 | 2050 ft | 218 kts | 185° |
| 2026-04-27 22:09 | 66.04779 | 76.40395 | 2051 ft | 231 kts | 142° |
| 2026-04-27 22:09 | 66.03699 | 76.43373 | 2047 ft | 234 kts | 124° |
| 2026-04-27 22:09 | 66.02827 | 76.46757 | 2050 ft | 235 kts | 120° |
| 2026-04-27 22:09 | 66.01998 | 76.50225 | 2034 ft | 235 kts | 120° |
| 2026-04-27 22:10 | 66.01157 | 76.53684 | 2034 ft | 235 kts | 121° |
| 2026-04-27 22:10 | 66.00594 | 76.55930 | 2032 ft | 229 kts | 121° |
| 2026-04-27 22:10 | 65.99472 | 76.60244 | 2024 ft | 221 kts | 123° |
| 2026-04-27 22:10 | 65.98632 | 76.63384 | 2043 ft | 214 kts | 124° |
| 2026-04-27 22:11 | 65.97837 | 76.66305 | 2036 ft | 198 kts | 122° |
| 2026-04-27 22:11 | 65.97363 | 76.69302 | 2010 ft | 179 kts | 91° |
| 2026-04-27 22:11 | 65.97475 | 76.72140 | 2036 ft | 159 kts | 62° |
| 2026-04-27 22:11 | 65.98003 | 76.74356 | 2031 ft | 144 kts | 36° |
| 2026-04-27 22:12 | 65.98768 | 76.75773 | 2037 ft | 133 kts | 13° |
| 2026-04-27 22:12 | 65.99612 | 76.76368 | 2039 ft | 123 kts | 354° |
| 2026-04-27 22:12 | 66.00450 | 76.76337 | 2047 ft | 121 kts | 348° |
| 2026-04-27 22:12 | 66.01289 | 76.76254 | 2039 ft | 120 kts | 347° |
| 2026-04-27 22:13 | 66.02127 | 76.76170 | 2039 ft | 121 kts | 348° |
| 2026-04-27 22:13 | 66.02953 | 76.75998 | 2043 ft | 116 kts | 336° |
| 2026-04-27 22:13 | 66.03662 | 76.75122 | 2050 ft | 118 kts | 316° |
| 2026-04-27 22:13 | 66.04148 | 76.73457 | 1963 ft | 125 kts | 289° |
| 2026-04-27 22:14 | 66.04393 | 76.71435 | 1767 ft | 122 kts | 294° |
| 2026-04-27 22:14 | 66.04676 | 76.69491 | 1588 ft | 122 kts | 291° |
| 2026-04-27 22:14 | 66.04951 | 76.67505 | 1410 ft | 122 kts | 291° |
| 2026-04-27 22:14 | 66.05221 | 76.65515 | 1234 ft | 122 kts | 290° |
| 2026-04-27 22:15 | 66.05486 | 76.63524 | 1045 ft | 122 kts | 291° |
| 2026-04-27 22:15 | 66.05749 | 76.61537 | 853 ft | 122 kts | 289° |
| 2026-04-27 22:15 | 66.06008 | 76.59559 | 678 ft | 121 kts | 289° |
| 2026-04-27 22:15 | 66.06265 | 76.57594 | 508 ft | 121 kts | 289° |
| 2026-04-27 22:16 | 66.06523 | 76.55624 | 327 ft | 120 kts | 289° |
| 2026-04-27 22:16 | 66.06773 | 76.53675 | 226 ft | 115 kts | 288° |
| 2026-04-27 22:16 | 66.06965 | 76.52249 | 216 ft | 48 kts | 288° |
| 2026-04-27 22:16 | 66.07043 | 76.51646 | 219 ft | 40 kts | 287° |
| 2026-04-27 22:17 | 66.07137 | 76.50912 | 214 ft | 46 kts | 288° |
| 2026-04-27 22:17 | 66.07224 | 76.50576 | 215 ft | 21 kts | 6° |
| 2026-04-27 22:17 | 66.07361 | 76.50719 | 217 ft | 16 kts | 59° |
| 2026-04-27 22:17 | 66.07321 | 76.51092 | 218 ft | 30 kts | 107° |
| 2026-04-27 22:18 | 66.07282 | 76.51402 | 219 ft | 21 kts | 106° |
| 2026-04-27 22:18 | 66.07239 | 76.51745 | 220 ft | 21 kts | 109° |
| 2026-04-27 22:18 | 66.07201 | 76.52038 | 219 ft | 15 kts | 107° |
| 2026-04-27 22:18 | 66.07167 | 76.52149 | 216 ft | 8 kts | 150° |
| 2026-04-27 22:19 | 66.07131 | 76.52287 | 216 ft | 12 kts | 108° |
| 2026-04-27 22:19 | 66.07115 | 76.52457 | 218 ft | 10 kts | 86° |
| 2026-04-27 22:19 | 66.07149 | 76.52520 | 220 ft | 5 kts | 19° |
| 2026-04-27 22:19 | 66.07167 | 76.52534 | 216 ft | 0 kts | 17° |